sensor_id;sensor_type;location;lat;lon;timestamp;temperature;humidity
15815;DHT22;8008;50.024;8.172;2023-06-14T03:00:44;21.20;45.50
15815;DHT22;8008;50.024;8.172;2023-06-14T03:03:13;21.20;45.70
15815;DHT22;8008;50.024;8.172;2023-06-14T03:05:50;21.10;45.60
15815;DHT22;8008;50.024;8.172;2023-06-14T03:08:22;21.10;45.70
15815;DHT22;8008;50.024;8.172;2023-06-14T03:10:54;21.10;45.80
15815;DHT22;8008;50.024;8.172;2023-06-14T03:13:24;21.10;45.90
15815;DHT22;8008;50.024;8.172;2023-06-14T03:15:55;21.10;45.90
15815;DHT22;8008;50.024;8.172;2023-06-14T03:18:24;21.10;45.90
15815;DHT22;8008;50.024;8.172;2023-06-14T03:20:55;21.00;45.90
15815;DHT22;8008;50.024;8.172;2023-06-14T03:23:26;21.00;46.10
15815;DHT22;8008;50.024;8.172;2023-06-14T03:25:54;20.90;46.10
15815;DHT22;8008;50.024;8.172;2023-06-14T03:28:23;20.90;46.20
15815;DHT22;8008;50.024;8.172;2023-06-14T03:30:52;20.90;46.30
15815;DHT22;8008;50.024;8.172;2023-06-14T03:33:22;20.90;46.30
15815;DHT22;8008;50.024;8.172;2023-06-14T03:35:52;20.90;46.50
15815;DHT22;8008;50.024;8.172;2023-06-14T03:38:20;20.90;46.40
15815;DHT22;8008;50.024;8.172;2023-06-14T03:40:49;20.90;46.50
15815;DHT22;8008;50.024;8.172;2023-06-14T03:43:17;20.80;46.50
15815;DHT22;8008;50.024;8.172;2023-06-14T03:45:45;20.80;46.50
15815;DHT22;8008;50.024;8.172;2023-06-14T03:48:14;20.80;46.50
15815;DHT22;8008;50.024;8.172;2023-06-14T03:50:44;20.80;46.60
15815;DHT22;8008;50.024;8.172;2023-06-14T03:53:12;20.70;46.50
15815;DHT22;8008;50.024;8.172;2023-06-14T03:55:44;20.70;46.60
15815;DHT22;8008;50.024;8.172;2023-06-14T03:58:15;20.70;46.50
15815;DHT22;8008;50.024;8.172;2023-06-14T04:00:44;20.70;46.70
15815;DHT22;8008;50.024;8.172;2023-06-14T04:03:13;20.70;46.80
15815;DHT22;8008;50.024;8.172;2023-06-14T04:05:43;20.70;46.90
15815;DHT22;8008;50.024;8.172;2023-06-14T04:08:17;20.80;47.00
15815;DHT22;8008;50.024;8.172;2023-06-14T04:10:46;20.80;47.00
15815;DHT22;8008;50.024;8.172;2023-06-14T04:13:14;20.80;47.00
15815;DHT22;8008;50.024;8.172;2023-06-14T04:15:42;20.90;47.30
15815;DHT22;8008;50.024;8.172;2023-06-14T04:18:13;20.80;47.70
15815;DHT22;8008;50.024;8.172;2023-06-14T04:20:41;20.90;47.70
15815;DHT22;8008;50.024;8.172;2023-06-14T04:23:16;20.90;47.60
15815;DHT22;8008;50.024;8.172;2023-06-14T04:25:46;20.90;47.60
15815;DHT22;8008;50.024;8.172;2023-06-14T04:28:14;20.90;47.50
15815;DHT22;8008;50.024;8.172;2023-06-14T04:30:44;20.90;47.70
15815;DHT22;8008;50.024;8.172;2023-06-14T04:33:15;20.90;47.70
15815;DHT22;8008;50.024;8.172;2023-06-14T04:35:45;20.90;47.70
15815;DHT22;8008;50.024;8.172;2023-06-14T04:38:16;20.90;47.80
15815;DHT22;8008;50.024;8.172;2023-06-14T04:40:45;20.80;47.80
15815;DHT22;8008;50.024;8.172;2023-06-14T04:43:17;20.80;47.90
15815;DHT22;8008;50.024;8.172;2023-06-14T04:45:47;20.90;48.20
15815;DHT22;8008;50.024;8.172;2023-06-14T04:48:16;20.90;48.10
15815;DHT22;8008;50.024;8.172;2023-06-14T04:50:44;21.00;48.00
15815;DHT22;8008;50.024;8.172;2023-06-14T04:53:12;21.00;47.90
15815;DHT22;8008;50.024;8.172;2023-06-14T04:55:42;21.10;47.80
15815;DHT22;8008;50.024;8.172;2023-06-14T04:58:11;21.20;47.80
15815;DHT22;8008;50.024;8.172;2023-06-14T05:00:39;21.30;47.80
15815;DHT22;8008;50.024;8.172;2023-06-14T05:03:09;21.30;47.40
15815;DHT22;8008;50.024;8.172;2023-06-14T05:05:41;21.30;47.50
15815;DHT22;8008;50.024;8.172;2023-06-14T05:08:09;21.30;47.30
15815;DHT22;8008;50.024;8.172;2023-06-14T05:10:37;21.40;47.40
15815;DHT22;8008;50.024;8.172;2023-06-14T05:13:07;21.30;47.40
15815;DHT22;8008;50.024;8.172;2023-06-14T05:15:35;21.40;47.20
15815;DHT22;8008;50.024;8.172;2023-06-14T05:18:03;21.50;47.40
15815;DHT22;8008;50.024;8.172;2023-06-14T05:20:31;21.50;47.40
15815;DHT22;8008;50.024;8.172;2023-06-14T05:22:59;21.50;47.10
15815;DHT22;8008;50.024;8.172;2023-06-14T05:25:27;21.50;47.10
15815;DHT22;8008;50.024;8.172;2023-06-14T05:27:55;21.50;47.10
15815;DHT22;8008;50.024;8.172;2023-06-14T05:30:25;21.50;47.10
15815;DHT22;8008;50.024;8.172;2023-06-14T05:32:53;21.60;47.60
15815;DHT22;8008;50.024;8.172;2023-06-14T05:35:21;21.60;47.70
15815;DHT22;8008;50.024;8.172;2023-06-14T05:37:50;21.70;47.70
15815;DHT22;8008;50.024;8.172;2023-06-14T05:40:18;21.80;47.90
15815;DHT22;8008;50.024;8.172;2023-06-14T05:42:46;21.80;47.60
15815;DHT22;8008;50.024;8.172;2023-06-14T05:45:14;21.80;47.40
15815;DHT22;8008;50.024;8.172;2023-06-14T05:47:44;21.80;47.20
15815;DHT22;8008;50.024;8.172;2023-06-14T05:50:12;21.80;47.00
15815;DHT22;8008;50.024;8.172;2023-06-14T05:52:40;21.80;47.10
15815;DHT22;8008;50.024;8.172;2023-06-14T05:55:08;21.80;46.80
15815;DHT22;8008;50.024;8.172;2023-06-14T05:57:39;21.80;46.60
15815;DHT22;8008;50.024;8.172;2023-06-14T06:00:09;21.80;46.60
15815;DHT22;8008;50.024;8.172;2023-06-14T06:02:41;21.80;46.70
15815;DHT22;8008;50.024;8.172;2023-06-14T06:05:12;21.90;46.80
15815;DHT22;8008;50.024;8.172;2023-06-14T06:07:40;21.90;46.20
15815;DHT22;8008;50.024;8.172;2023-06-14T06:10:09;21.90;46.60
15815;DHT22;8008;50.024;8.172;2023-06-14T06:12:37;22.00;46.60
15815;DHT22;8008;50.024;8.172;2023-06-14T06:15:05;22.00;46.80
15815;DHT22;8008;50.024;8.172;2023-06-14T06:17:34;22.10;46.70
15815;DHT22;8008;50.024;8.172;2023-06-14T06:20:22;22.10;46.50
15815;DHT22;8008;50.024;8.172;2023-06-14T06:22:55;22.10;46.40
15815;DHT22;8008;50.024;8.172;2023-06-14T06:25:23;22.10;46.20
15815;DHT22;8008;50.024;8.172;2023-06-14T06:27:52;22.10;46.50
15815;DHT22;8008;50.024;8.172;2023-06-14T06:30:20;22.10;46.80
15815;DHT22;8008;50.024;8.172;2023-06-14T06:32:48;22.10;46.90
15815;DHT22;8008;50.024;8.172;2023-06-14T06:35:17;22.20;47.40
15815;DHT22;8008;50.024;8.172;2023-06-14T06:37:47;22.20;47.20
15815;DHT22;8008;50.024;8.172;2023-06-14T06:40:15;22.20;47.00
15815;DHT22;8008;50.024;8.172;2023-06-14T06:42:43;22.20;46.90
15815;DHT22;8008;50.024;8.172;2023-06-14T06:45:13;22.30;47.10
15815;DHT22;8008;50.024;8.172;2023-06-14T06:47:41;22.20;47.10
15815;DHT22;8008;50.024;8.172;2023-06-14T06:50:09;22.20;46.80
15815;DHT22;8008;50.024;8.172;2023-06-14T06:52:37;22.20;46.70
15815;DHT22;8008;50.024;8.172;2023-06-14T06:55:07;22.20;46.80
15815;DHT22;8008;50.024;8.172;2023-06-14T06:57:37;22.20;47.10
15815;DHT22;8008;50.024;8.172;2023-06-14T07:00:07;22.20;47.00
15815;DHT22;8008;50.024;8.172;2023-06-14T07:02:36;22.20;47.10
15815;DHT22;8008;50.024;8.172;2023-06-14T07:05:04;22.30;46.90
15815;DHT22;8008;50.024;8.172;2023-06-14T07:07:33;22.30;46.80
15815;DHT22;8008;50.024;8.172;2023-06-14T07:10:01;22.30;47.10
15815;DHT22;8008;50.024;8.172;2023-06-14T07:12:32;22.30;46.50
15815;DHT22;8008;50.024;8.172;2023-06-14T07:15:06;22.20;46.60
15815;DHT22;8008;50.024;8.172;2023-06-14T07:17:35;22.30;47.20
15815;DHT22;8008;50.024;8.172;2023-06-14T07:20:04;22.20;47.00
15815;DHT22;8008;50.024;8.172;2023-06-14T07:22:39;22.20;46.60
15815;DHT22;8008;50.024;8.172;2023-06-14T07:25:09;22.20;47.10
15815;DHT22;8008;50.024;8.172;2023-06-14T07:27:41;22.20;47.30
15815;DHT22;8008;50.024;8.172;2023-06-14T07:30:10;22.20;47.30
15815;DHT22;8008;50.024;8.172;2023-06-14T07:32:38;22.20;47.50
15815;DHT22;8008;50.024;8.172;2023-06-14T07:35:07;22.10;47.60
15815;DHT22;8008;50.024;8.172;2023-06-14T07:37:35;22.20;47.60
15815;DHT22;8008;50.024;8.172;2023-06-14T07:40:04;22.30;47.60
15815;DHT22;8008;50.024;8.172;2023-06-14T07:42:34;22.30;47.40
15815;DHT22;8008;50.024;8.172;2023-06-14T07:45:05;22.30;47.60
15815;DHT22;8008;50.024;8.172;2023-06-14T07:47:33;22.30;47.50
15815;DHT22;8008;50.024;8.172;2023-06-14T07:50:01;22.40;47.60
15815;DHT22;8008;50.024;8.172;2023-06-14T07:52:29;22.40;47.60
15815;DHT22;8008;50.024;8.172;2023-06-14T07:54:57;22.50;47.00
15815;DHT22;8008;50.024;8.172;2023-06-14T07:57:26;22.40;46.90
15815;DHT22;8008;50.024;8.172;2023-06-14T07:59:53;22.50;47.60
15815;DHT22;8008;50.024;8.172;2023-06-14T08:02:23;22.50;46.90
15815;DHT22;8008;50.024;8.172;2023-06-14T08:04:51;22.50;46.80
15815;DHT22;8008;50.024;8.172;2023-06-14T08:07:19;22.50;46.50
15815;DHT22;8008;50.024;8.172;2023-06-14T08:09:47;22.60;46.30
15815;DHT22;8008;50.024;8.172;2023-06-14T08:12:15;22.60;46.50
15815;DHT22;8008;50.024;8.172;2023-06-14T08:14:43;22.60;46.30
15815;DHT22;8008;50.024;8.172;2023-06-14T08:17:11;22.70;46.10
15815;DHT22;8008;50.024;8.172;2023-06-14T08:19:40;22.80;46.70
15815;DHT22;8008;50.024;8.172;2023-06-14T08:22:08;22.80;46.80
15815;DHT22;8008;50.024;8.172;2023-06-14T08:24:38;22.80;46.90
15815;DHT22;8008;50.024;8.172;2023-06-14T08:27:07;22.80;47.00
15815;DHT22;8008;50.024;8.172;2023-06-14T08:29:35;22.80;46.80
15815;DHT22;8008;50.024;8.172;2023-06-14T08:32:05;22.80;47.00
15815;DHT22;8008;50.024;8.172;2023-06-14T08:34:33;22.80;47.00
15815;DHT22;8008;50.024;8.172;2023-06-14T08:37:03;22.80;47.10
15815;DHT22;8008;50.024;8.172;2023-06-14T08:39:32;22.90;47.00
15815;DHT22;8008;50.024;8.172;2023-06-14T08:42:01;22.90;47.30
15815;DHT22;8008;50.024;8.172;2023-06-14T08:44:30;23.00;47.30
15815;DHT22;8008;50.024;8.172;2023-06-14T08:46:59;23.00;47.30
15815;DHT22;8008;50.024;8.172;2023-06-14T08:49:27;23.00;47.10
15815;DHT22;8008;50.024;8.172;2023-06-14T08:51:58;22.90;46.80
15815;DHT22;8008;50.024;8.172;2023-06-14T08:54:29;23.00;47.00
15815;DHT22;8008;50.024;8.172;2023-06-14T08:56:57;23.00;46.70
15815;DHT22;8008;50.024;8.172;2023-06-14T08:59:26;23.10;46.40
15815;DHT22;8008;50.024;8.172;2023-06-14T09:01:54;23.10;46.80
15815;DHT22;8008;50.024;8.172;2023-06-14T09:04:38;23.20;47.30
15815;DHT22;8008;50.024;8.172;2023-06-14T09:07:06;23.20;47.50
15815;DHT22;8008;50.024;8.172;2023-06-14T09:09:39;23.30;47.40
15815;DHT22;8008;50.024;8.172;2023-06-14T09:12:28;23.40;47.30
15815;DHT22;8008;50.024;8.172;2023-06-14T09:14:56;23.40;47.20
15815;DHT22;8008;50.024;8.172;2023-06-14T09:17:24;23.40;47.10
15815;DHT22;8008;50.024;8.172;2023-06-14T09:19:55;23.40;47.10
15815;DHT22;8008;50.024;8.172;2023-06-14T09:22:24;23.40;46.70
15815;DHT22;8008;50.024;8.172;2023-06-14T09:24:53;23.40;47.30
15815;DHT22;8008;50.024;8.172;2023-06-14T09:27:21;23.40;47.30
15815;DHT22;8008;50.024;8.172;2023-06-14T09:29:49;23.50;44.90
15815;DHT22;8008;50.024;8.172;2023-06-14T09:32:17;23.50;44.80
15815;DHT22;8008;50.024;8.172;2023-06-14T09:34:45;23.50;44.30
15815;DHT22;8008;50.024;8.172;2023-06-14T09:37:26;23.50;43.50
15815;DHT22;8008;50.024;8.172;2023-06-14T09:39:56;23.50;45.40
15815;DHT22;8008;50.024;8.172;2023-06-14T09:42:24;23.50;45.70
15815;DHT22;8008;50.024;8.172;2023-06-14T09:44:56;23.50;46.30
15815;DHT22;8008;50.024;8.172;2023-06-14T09:47:24;23.70;46.00
15815;DHT22;8008;50.024;8.172;2023-06-14T09:49:53;23.60;44.70
15815;DHT22;8008;50.024;8.172;2023-06-14T09:52:22;23.50;44.60
15815;DHT22;8008;50.024;8.172;2023-06-14T09:54:50;23.50;45.40
15815;DHT22;8008;50.024;8.172;2023-06-14T09:57:22;23.50;45.40
15815;DHT22;8008;50.024;8.172;2023-06-14T09:59:55;23.60;45.00
15815;DHT22;8008;50.024;8.172;2023-06-14T10:02:27;23.80;44.70
15815;DHT22;8008;50.024;8.172;2023-06-14T10:05:04;23.80;44.30
15815;DHT22;8008;50.024;8.172;2023-06-14T10:07:38;23.90;43.80
15815;DHT22;8008;50.024;8.172;2023-06-14T10:10:08;24.00;43.90
15815;DHT22;8008;50.024;8.172;2023-06-14T10:12:37;24.10;44.60
15815;DHT22;8008;50.024;8.172;2023-06-14T10:15:09;24.30;44.50
15815;DHT22;8008;50.024;8.172;2023-06-14T10:17:46;24.50;43.90
15815;DHT22;8008;50.024;8.172;2023-06-14T10:20:27;24.70;43.90
15815;DHT22;8008;50.024;8.172;2023-06-14T10:23:00;25.20;43.40
15815;DHT22;8008;50.024;8.172;2023-06-14T10:25:30;25.60;42.30
15815;DHT22;8008;50.024;8.172;2023-06-14T10:28:19;25.80;42.30
15815;DHT22;8008;50.024;8.172;2023-06-14T10:31:02;26.00;41.40
15815;DHT22;8008;50.024;8.172;2023-06-14T10:33:32;26.20;41.00
15815;DHT22;8008;50.024;8.172;2023-06-14T10:36:11;26.30;41.10
15815;DHT22;8008;50.024;8.172;2023-06-14T10:38:57;26.40;41.40
15815;DHT22;8008;50.024;8.172;2023-06-14T10:41:27;26.30;41.10
15815;DHT22;8008;50.024;8.172;2023-06-14T10:44:34;26.60;41.10
15815;DHT22;8008;50.024;8.172;2023-06-14T10:47:07;26.90;42.20
15815;DHT22;8008;50.024;8.172;2023-06-14T10:49:41;27.00;42.00
15815;DHT22;8008;50.024;8.172;2023-06-14T10:52:11;27.30;42.40
15815;DHT22;8008;50.024;8.172;2023-06-14T10:55:05;27.60;41.90
15815;DHT22;8008;50.024;8.172;2023-06-14T10:57:36;28.10;41.90
15815;DHT22;8008;50.024;8.172;2023-06-14T11:00:20;28.20;41.90
15815;DHT22;8008;50.024;8.172;2023-06-14T11:03:16;28.30;41.30
15815;DHT22;8008;50.024;8.172;2023-06-14T11:05:51;28.30;41.10
15815;DHT22;8008;50.024;8.172;2023-06-14T11:08:35;28.50;41.20
15815;DHT22;8008;50.024;8.172;2023-06-14T11:11:08;28.70;41.10
15815;DHT22;8008;50.024;8.172;2023-06-14T11:13:38;28.70;40.90
15815;DHT22;8008;50.024;8.172;2023-06-14T11:16:12;28.70;40.40
15815;DHT22;8008;50.024;8.172;2023-06-14T11:18:41;28.90;40.70
15815;DHT22;8008;50.024;8.172;2023-06-14T11:21:09;29.10;40.40
15815;DHT22;8008;50.024;8.172;2023-06-14T11:23:37;29.20;40.10
15815;DHT22;8008;50.024;8.172;2023-06-14T11:26:05;29.30;39.80
15815;DHT22;8008;50.024;8.172;2023-06-14T11:28:37;29.30;39.60
15815;DHT22;8008;50.024;8.172;2023-06-14T11:31:05;29.40;39.80
15815;DHT22;8008;50.024;8.172;2023-06-14T11:33:34;29.40;39.60
15815;DHT22;8008;50.024;8.172;2023-06-14T11:36:03;29.50;39.50
15815;DHT22;8008;50.024;8.172;2023-06-14T11:38:35;29.60;39.70
15815;DHT22;8008;50.024;8.172;2023-06-14T11:41:04;29.80;39.40
15815;DHT22;8008;50.024;8.172;2023-06-14T11:43:32;30.10;39.30
15815;DHT22;8008;50.024;8.172;2023-06-14T11:46:01;30.30;39.20
15815;DHT22;8008;50.024;8.172;2023-06-14T11:48:37;30.30;38.40
15815;DHT22;8008;50.024;8.172;2023-06-14T11:51:05;30.20;38.90
15815;DHT22;8008;50.024;8.172;2023-06-14T11:53:33;30.40;38.50
15815;DHT22;8008;50.024;8.172;2023-06-14T11:56:02;30.60;38.60
15815;DHT22;8008;50.024;8.172;2023-06-14T11:58:30;30.80;38.60
15815;DHT22;8008;50.024;8.172;2023-06-14T12:00:58;31.00;38.00
15815;DHT22;8008;50.024;8.172;2023-06-14T12:03:26;31.00;37.50
15815;DHT22;8008;50.024;8.172;2023-06-14T12:06:06;31.00;37.20
15815;DHT22;8008;50.024;8.172;2023-06-14T12:08:36;31.30;38.00
15815;DHT22;8008;50.024;8.172;2023-06-14T12:11:11;31.60;37.90
15815;DHT22;8008;50.024;8.172;2023-06-14T12:13:40;31.90;37.20
15815;DHT22;8008;50.024;8.172;2023-06-14T12:16:09;32.10;36.90
15815;DHT22;8008;50.024;8.172;2023-06-14T12:18:39;32.00;37.00
15815;DHT22;8008;50.024;8.172;2023-06-14T12:21:09;32.30;37.60
15815;DHT22;8008;50.024;8.172;2023-06-14T12:23:45;32.50;36.40
15815;DHT22;8008;50.024;8.172;2023-06-14T12:26:14;32.90;36.10
15815;DHT22;8008;50.024;8.172;2023-06-14T12:28:44;33.00;35.30
15815;DHT22;8008;50.024;8.172;2023-06-14T12:31:14;33.20;36.70
15815;DHT22;8008;50.024;8.172;2023-06-14T12:33:42;33.70;36.60
15815;DHT22;8008;50.024;8.172;2023-06-14T12:36:14;34.10;36.00
15815;DHT22;8008;50.024;8.172;2023-06-14T12:38:42;34.30;35.70
15815;DHT22;8008;50.024;8.172;2023-06-14T12:41:10;34.30;35.20
15815;DHT22;8008;50.024;8.172;2023-06-14T12:43:38;34.20;36.10
15815;DHT22;8008;50.024;8.172;2023-06-14T12:46:06;34.30;36.20
15815;DHT22;8008;50.024;8.172;2023-06-14T12:48:34;34.60;36.00
15815;DHT22;8008;50.024;8.172;2023-06-14T12:51:02;34.80;36.10
15815;DHT22;8008;50.024;8.172;2023-06-14T12:53:31;35.20;35.30
15815;DHT22;8008;50.024;8.172;2023-06-14T12:55:59;34.60;35.00
15815;DHT22;8008;50.024;8.172;2023-06-14T12:58:27;34.40;35.70
15815;DHT22;8008;50.024;8.172;2023-06-14T13:00:55;35.20;36.20
15815;DHT22;8008;50.024;8.172;2023-06-14T13:03:23;36.00;35.30
15815;DHT22;8008;50.024;8.172;2023-06-14T13:05:51;36.50;34.70
15815;DHT22;8008;50.024;8.172;2023-06-14T13:08:19;36.40;35.00
15815;DHT22;8008;50.024;8.172;2023-06-14T13:10:52;35.60;35.50
15815;DHT22;8008;50.024;8.172;2023-06-14T13:13:20;34.20;35.80
15815;DHT22;8008;50.024;8.172;2023-06-14T13:15:48;33.50;36.30
15815;DHT22;8008;50.024;8.172;2023-06-14T13:18:16;33.30;37.00
15815;DHT22;8008;50.024;8.172;2023-06-14T13:20:45;33.10;37.00
15815;DHT22;8008;50.024;8.172;2023-06-14T13:23:14;32.80;37.80
15815;DHT22;8008;50.024;8.172;2023-06-14T13:25:43;33.10;37.10
15815;DHT22;8008;50.024;8.172;2023-06-14T13:28:12;33.10;37.10
15815;DHT22;8008;50.024;8.172;2023-06-14T13:30:40;33.70;36.60
15815;DHT22;8008;50.024;8.172;2023-06-14T13:33:08;35.00;36.10
15815;DHT22;8008;50.024;8.172;2023-06-14T13:35:36;35.90;35.50
15815;DHT22;8008;50.024;8.172;2023-06-14T13:38:04;37.20;35.30
15815;DHT22;8008;50.024;8.172;2023-06-14T13:40:32;38.20;34.60
15815;DHT22;8008;50.024;8.172;2023-06-14T13:43:00;38.00;33.60
15815;DHT22;8008;50.024;8.172;2023-06-14T13:45:29;36.90;33.60
15815;DHT22;8008;50.024;8.172;2023-06-14T13:47:57;35.50;34.30
15815;DHT22;8008;50.024;8.172;2023-06-14T13:50:25;35.80;35.10
15815;DHT22;8008;50.024;8.172;2023-06-14T13:52:54;37.20;34.60
15815;DHT22;8008;50.024;8.172;2023-06-14T13:55:22;38.10;33.70
15815;DHT22;8008;50.024;8.172;2023-06-14T13:57:50;37.40;33.30
15815;DHT22;8008;50.024;8.172;2023-06-14T14:00:18;35.90;33.70
15815;DHT22;8008;50.024;8.172;2023-06-14T14:02:51;34.80;34.00
15815;DHT22;8008;50.024;8.172;2023-06-14T14:05:19;33.80;34.40
15815;DHT22;8008;50.024;8.172;2023-06-14T14:07:47;33.20;35.80
15815;DHT22;8008;50.024;8.172;2023-06-14T14:10:15;34.20;36.40
15815;DHT22;8008;50.024;8.172;2023-06-14T14:12:44;36.20;34.50
15815;DHT22;8008;50.024;8.172;2023-06-14T14:15:15;36.90;34.00
15815;DHT22;8008;50.024;8.172;2023-06-14T14:17:43;37.60;33.00
15815;DHT22;8008;50.024;8.172;2023-06-14T14:20:13;37.90;32.60
15815;DHT22;8008;50.024;8.172;2023-06-14T14:22:43;37.10;32.70
15815;DHT22;8008;50.024;8.172;2023-06-14T14:25:11;35.90;32.70
15815;DHT22;8008;50.024;8.172;2023-06-14T14:27:39;35.50;33.60
15815;DHT22;8008;50.024;8.172;2023-06-14T14:30:07;36.70;33.60
15815;DHT22;8008;50.024;8.172;2023-06-14T14:32:36;37.70;33.50
15815;DHT22;8008;50.024;8.172;2023-06-14T14:35:04;37.80;33.10
15815;DHT22;8008;50.024;8.172;2023-06-14T14:37:34;37.50;33.30
15815;DHT22;8008;50.024;8.172;2023-06-14T14:40:02;36.30;33.80
15815;DHT22;8008;50.024;8.172;2023-06-14T14:42:30;35.20;34.40
15815;DHT22;8008;50.024;8.172;2023-06-14T14:44:58;34.60;34.50
15815;DHT22;8008;50.024;8.172;2023-06-14T14:47:26;33.80;35.30
15815;DHT22;8008;50.024;8.172;2023-06-14T14:49:54;33.50;36.30
15815;DHT22;8008;50.024;8.172;2023-06-14T14:52:22;33.80;35.70
15815;DHT22;8008;50.024;8.172;2023-06-14T14:54:52;35.40;34.90
15815;DHT22;8008;50.024;8.172;2023-06-14T14:57:21;36.90;34.50
15815;DHT22;8008;50.024;8.172;2023-06-14T14:59:49;38.20;34.00
15815;DHT22;8008;50.024;8.172;2023-06-14T15:02:17;38.60;33.40
15815;DHT22;8008;50.024;8.172;2023-06-14T15:04:46;38.30;32.50
15815;DHT22;8008;50.024;8.172;2023-06-14T15:07:14;37.80;32.60
15815;DHT22;8008;50.024;8.172;2023-06-14T15:09:42;36.60;33.00
15815;DHT22;8008;50.024;8.172;2023-06-14T15:12:12;35.40;33.80
15815;DHT22;8008;50.024;8.172;2023-06-14T15:14:40;34.20;34.00
15815;DHT22;8008;50.024;8.172;2023-06-14T15:17:08;35.20;34.60
15815;DHT22;8008;50.024;8.172;2023-06-14T15:19:36;36.70;33.70
15815;DHT22;8008;50.024;8.172;2023-06-14T15:22:04;37.80;32.70
15815;DHT22;8008;50.024;8.172;2023-06-14T15:24:33;39.20;32.50
15815;DHT22;8008;50.024;8.172;2023-06-14T15:27:11;40.20;32.20
15815;DHT22;8008;50.024;8.172;2023-06-14T15:29:41;40.90;32.00
15815;DHT22;8008;50.024;8.172;2023-06-14T15:32:10;41.80;31.90
15815;DHT22;8008;50.024;8.172;2023-06-14T15:34:38;42.30;32.00
15815;DHT22;8008;50.024;8.172;2023-06-14T15:37:06;41.20;31.50
15815;DHT22;8008;50.024;8.172;2023-06-14T15:39:34;40.40;31.90
15815;DHT22;8008;50.024;8.172;2023-06-14T15:42:03;38.20;32.40
15815;DHT22;8008;50.024;8.172;2023-06-14T15:44:32;36.80;32.90
15815;DHT22;8008;50.024;8.172;2023-06-14T15:47:00;35.30;33.80
15815;DHT22;8008;50.024;8.172;2023-06-14T15:49:28;34.50;34.20
15815;DHT22;8008;50.024;8.172;2023-06-14T15:51:56;33.70;35.00
15815;DHT22;8008;50.024;8.172;2023-06-14T15:54:24;33.10;35.20
15815;DHT22;8008;50.024;8.172;2023-06-14T15:56:52;32.60;35.60
15815;DHT22;8008;50.024;8.172;2023-06-14T15:59:20;32.20;36.00
15815;DHT22;8008;50.024;8.172;2023-06-14T16:01:50;32.30;36.20
15815;DHT22;8008;50.024;8.172;2023-06-14T16:04:18;31.70;35.30
15815;DHT22;8008;50.024;8.172;2023-06-14T16:06:46;31.40;35.60
15815;DHT22;8008;50.024;8.172;2023-06-14T16:09:14;31.40;35.70
15815;DHT22;8008;50.024;8.172;2023-06-14T16:11:42;31.10;36.70
15815;DHT22;8008;50.024;8.172;2023-06-14T16:14:10;31.00;36.00
15815;DHT22;8008;50.024;8.172;2023-06-14T16:16:38;30.70;36.30
15815;DHT22;8008;50.024;8.172;2023-06-14T16:19:07;30.80;36.80
15815;DHT22;8008;50.024;8.172;2023-06-14T16:21:35;30.50;37.30
15815;DHT22;8008;50.024;8.172;2023-06-14T16:24:04;30.50;37.40
15815;DHT22;8008;50.024;8.172;2023-06-14T16:26:32;30.40;37.10
15815;DHT22;8008;50.024;8.172;2023-06-14T16:29:00;30.40;37.20
15815;DHT22;8008;50.024;8.172;2023-06-14T16:31:28;30.30;37.00
15815;DHT22;8008;50.024;8.172;2023-06-14T16:33:56;30.10;37.20
15815;DHT22;8008;50.024;8.172;2023-06-14T16:36:25;30.00;37.40
15815;DHT22;8008;50.024;8.172;2023-06-14T16:38:53;29.70;37.40
15815;DHT22;8008;50.024;8.172;2023-06-14T16:41:21;29.60;37.50
15815;DHT22;8008;50.024;8.172;2023-06-14T16:43:49;29.40;37.60
15815;DHT22;8008;50.024;8.172;2023-06-14T16:46:27;29.20;37.50
15815;DHT22;8008;50.024;8.172;2023-06-14T16:48:56;29.10;37.40
15815;DHT22;8008;50.024;8.172;2023-06-14T16:51:25;29.10;38.30
15815;DHT22;8008;50.024;8.172;2023-06-14T16:53:53;29.10;37.70
15815;DHT22;8008;50.024;8.172;2023-06-14T16:56:23;29.10;37.90
15815;DHT22;8008;50.024;8.172;2023-06-14T16:58:53;29.10;38.40
15815;DHT22;8008;50.024;8.172;2023-06-14T17:01:21;29.10;38.30
15815;DHT22;8008;50.024;8.172;2023-06-14T17:03:50;29.10;39.00
15815;DHT22;8008;50.024;8.172;2023-06-14T17:06:18;29.00;38.70
15815;DHT22;8008;50.024;8.172;2023-06-14T17:08:49;28.90;39.00
15815;DHT22;8008;50.024;8.172;2023-06-14T17:11:20;28.70;38.90
15815;DHT22;8008;50.024;8.172;2023-06-14T17:13:49;28.80;39.20
15815;DHT22;8008;50.024;8.172;2023-06-14T17:16:17;29.00;39.70
15815;DHT22;8008;50.024;8.172;2023-06-14T17:18:45;29.10;39.70
15815;DHT22;8008;50.024;8.172;2023-06-14T17:21:14;28.80;40.00
15815;DHT22;8008;50.024;8.172;2023-06-14T17:23:42;29.00;40.30
15815;DHT22;8008;50.024;8.172;2023-06-14T17:26:11;29.60;40.50
15815;DHT22;8008;50.024;8.172;2023-06-14T17:28:39;30.50;38.90
15815;DHT22;8008;50.024;8.172;2023-06-14T17:31:07;31.50;38.40
15815;DHT22;8008;50.024;8.172;2023-06-14T17:33:35;32.20;37.90
15815;DHT22;8008;50.024;8.172;2023-06-14T17:36:04;32.50;37.10
15815;DHT22;8008;50.024;8.172;2023-06-14T17:38:32;32.60;36.90
15815;DHT22;8008;50.024;8.172;2023-06-14T17:41:00;32.40;36.90
15815;DHT22;8008;50.024;8.172;2023-06-14T17:43:32;31.90;37.00
15815;DHT22;8008;50.024;8.172;2023-06-14T17:45:59;31.30;37.20
15815;DHT22;8008;50.024;8.172;2023-06-14T17:48:27;30.60;37.70
15815;DHT22;8008;50.024;8.172;2023-06-14T17:51:00;30.10;38.30
15815;DHT22;8008;50.024;8.172;2023-06-14T17:53:28;29.70;38.50
15815;DHT22;8008;50.024;8.172;2023-06-14T17:55:56;29.20;38.90
15815;DHT22;8008;50.024;8.172;2023-06-14T17:58:24;29.00;39.20
15815;DHT22;8008;50.024;8.172;2023-06-14T18:00:53;28.80;39.60
15815;DHT22;8008;50.024;8.172;2023-06-14T18:03:21;28.60;39.80
15815;DHT22;8008;50.024;8.172;2023-06-14T18:05:49;28.40;40.10
15815;DHT22;8008;50.024;8.172;2023-06-14T18:08:17;28.20;40.50
15815;DHT22;8008;50.024;8.172;2023-06-14T18:10:45;28.20;40.60
15815;DHT22;8008;50.024;8.172;2023-06-14T18:13:14;28.00;40.50
15815;DHT22;8008;50.024;8.172;2023-06-14T18:15:42;27.90;40.60
15815;DHT22;8008;50.024;8.172;2023-06-14T18:18:11;27.70;40.80
15815;DHT22;8008;50.024;8.172;2023-06-14T18:20:39;27.50;40.80
15815;DHT22;8008;50.024;8.172;2023-06-14T18:23:07;27.30;41.10
15815;DHT22;8008;50.024;8.172;2023-06-14T18:25:38;27.20;42.10
15815;DHT22;8008;50.024;8.172;2023-06-14T18:28:06;27.00;41.40
15815;DHT22;8008;50.024;8.172;2023-06-14T18:30:34;26.90;41.40
15815;DHT22;8008;50.024;8.172;2023-06-14T18:33:02;26.80;41.70
15815;DHT22;8008;50.024;8.172;2023-06-14T18:35:34;26.70;41.60
15815;DHT22;8008;50.024;8.172;2023-06-14T18:38:02;26.80;41.70
15815;DHT22;8008;50.024;8.172;2023-06-14T18:40:29;26.70;41.80
15815;DHT22;8008;50.024;8.172;2023-06-14T18:42:57;26.70;42.10
15815;DHT22;8008;50.024;8.172;2023-06-14T18:45:25;26.60;42.20
15815;DHT22;8008;50.024;8.172;2023-06-14T18:47:53;26.40;42.60
15815;DHT22;8008;50.024;8.172;2023-06-14T18:50:21;26.30;42.80
15815;DHT22;8008;50.024;8.172;2023-06-14T18:52:51;26.30;42.80
15815;DHT22;8008;50.024;8.172;2023-06-14T18:55:19;26.20;43.20
15815;DHT22;8008;50.024;8.172;2023-06-14T18:57:47;26.20;43.20
15815;DHT22;8008;50.024;8.172;2023-06-14T19:00:16;26.00;43.30